• Join FlightAware (Why Join?)
  • Login
  • US Flag 
03:33AM EDT


 

Airport Tracker/Info


-or-


 

Live Flight TrackerFlight Track Log ✈ TAM3480 ✈ 01-May-2013 ✈ SBBR / BSB - SBMO / MCZ

Flight Track Log - Related Links

Times and Time Zones

All times are in EDT time to prevent confusion due to time zone crossing. See the TAM3480 flight status page for this flight to view local times or setup timezone preferences in your user account.

Time Position Orientation Groundspeed Altitude Reporting Facility
EDT Latitude Longitude Course Direction KTS MPH feet Rate Location/Type
09:39PM -15.8790 -47.9080 90° East 130 150 3,600  Level FlightAware
09:40PM -15.8770 -47.8810 86° East 163 188 5,100 2,280 Climbing FlightAware
09:40PM -15.8800 -47.8670 103° East 167 192 5,500 1,560 Climbing FlightAware
09:40PM -15.8860 -47.8470 107° East 167 192 6,300 1,080 Climbing FlightAware
09:41PM -15.8950 -47.8130 105° East 175 201 6,800 1,260 Climbing FlightAware
09:41PM -15.8790 -47.7950 47° Northeast 197 227 7,700 2,220 Climbing FlightAware
09:42PM -15.8670 -47.7780 54° Northeast 235 270 8,100 1,920 Climbing FlightAware
09:42PM -15.8520 -47.7560 55° Northeast 242 278 9,000 2,040 Climbing FlightAware
09:43PM -15.8240 -47.7150 55° Northeast 247 284 10,500 1,500 Climbing FlightAware
09:43PM -15.7980 -47.6770 55° Northeast 294 338 11,000 720 Climbing FlightAware
09:44PM -15.7540 -47.6100 56° Northeast 358 412 11,600 420 Climbing FlightAware
09:45PM -15.7010 -47.5310 55° Northeast 383 441 11,800 1,020 Climbing FlightAware
09:46PM -15.6610 -47.4700 56° Northeast 383 441 13,300 2,820 Climbing FlightAware
09:46PM -15.6080 -47.3910 55° Northeast 409 471 15,600 1,920 Climbing FlightAware
09:47PM -15.5700 -47.3330 56° Northeast 412 474 15,900 180 Climbing FlightAware
09:48PM -15.5320 -47.2780 54° Northeast 412 474 15,900  Level FlightAware
09:48PM -15.4950 -47.2230 55° Northeast 412 474 15,900  Level FlightAware
09:49PM -15.4580 -47.1680 55° Northeast 412 474 15,900  Level FlightAware
09:50PM -15.4120 -47.0990 55° Northeast 412 474 15,900  Level FlightAware
09:51PM -15.3740 -47.0440 54° Northeast 412 474 15,900  Level FlightAware
09:53PM -15.2863 -46.8641 63° Northeast  Level Estimated
09:54PM -15.2397 -46.7687 63° Northeast  Level Estimated
09:55PM -15.1931 -46.6733 63° Northeast  Level Estimated
09:56PM -15.1464 -46.5779 63° Northeast  Level Estimated
09:57PM -15.0997 -46.4826 63° Northeast  Level Estimated
09:58PM -15.0529 -46.3873 63° Northeast  Level Estimated
09:59PM -15.0061 -46.2920 63° Northeast  Level Estimated
10:00PM -14.9592 -46.1968 63° Northeast  Level Estimated
10:01PM -14.9123 -46.1017 63° Northeast  Level Estimated
10:02PM -14.8654 -46.0066 63° Northeast  Level Estimated
10:03PM -14.8185 -45.9115 63° Northeast  Level Estimated
10:04PM -14.7715 -45.8165 63° Northeast  Level Estimated
10:05PM -14.7244 -45.7215 63° Northeast  Level Estimated
10:06PM -14.6774 -45.6265 63° Northeast  Level Estimated
10:07PM -14.6302 -45.5316 63° Northeast  Level Estimated
10:08PM -14.5831 -45.4368 63° Northeast  Level Estimated
10:09PM -14.5359 -45.3419 63° Northeast  Level Estimated
10:10PM -14.4887 -45.2471 63° Northeast  Level Estimated
10:11PM -14.4414 -45.1524 63° Northeast  Level Estimated
10:12PM -14.3941 -45.0577 63° Northeast  Level Estimated
10:13PM -14.3467 -44.9630 63° Northeast  Level Estimated
10:14PM -14.2993 -44.8684 63° Northeast  Level Estimated
10:15PM -14.2519 -44.7738 63° Northeast  Level Estimated
10:16PM -14.2045 -44.6792 63° Northeast  Level Estimated
10:17PM -14.1570 -44.5847 63° Northeast  Level Estimated
10:18PM -14.1094 -44.4903 63° Northeast  Level Estimated
10:19PM -14.0619 -44.3958 63° Northeast  Level Estimated
10:20PM -14.0142 -44.3014 63° Northeast  Level Estimated
10:21PM -13.9666 -44.2071 63° Northeast  Level Estimated
10:22PM -13.9189 -44.1128 62° Northeast  Level Estimated
10:23PM -13.8712 -44.0185 62° Northeast  Level Estimated
10:24PM -13.8235 -43.9243 62° Northeast  Level Estimated
10:25PM -13.7757 -43.8301 62° Northeast  Level Estimated
10:26PM -13.7278 -43.7359 62° Northeast  Level Estimated
10:27PM -13.6800 -43.6418 62° Northeast  Level Estimated
10:28PM -13.6321 -43.5477 62° Northeast  Level Estimated
10:29PM -13.5842 -43.4537 62° Northeast  Level Estimated
10:30PM -13.5362 -43.3597 62° Northeast  Level Estimated
10:31PM -13.4882 -43.2657 62° Northeast  Level Estimated
10:32PM -13.4402 -43.1718 62° Northeast  Level Estimated
10:33PM -13.3921 -43.0779 62° Northeast  Level Estimated
10:34PM -13.3440 -42.9841 62° Northeast  Level Estimated
10:35PM -13.2959 -42.8903 62° Northeast  Level Estimated
10:36PM -13.2477 -42.7965 62° Northeast  Level Estimated
10:37PM -13.1995 -42.7027 62° Northeast  Level Estimated
10:38PM -13.1512 -42.6090 62° Northeast  Level Estimated
10:39PM -13.1030 -42.5154 62° Northeast  Level Estimated
10:40PM -13.0547 -42.4217 62° Northeast  Level Estimated
10:41PM -13.0063 -42.3281 62° Northeast  Level Estimated
10:42PM -12.9579 -42.2346 62° Northeast  Level Estimated
10:43PM -12.9095 -42.1411 62° Northeast  Level Estimated
10:44PM -12.8611 -42.0476 62° Northeast  Level Estimated
10:45PM -12.8126 -41.9541 62° Northeast  Level Estimated
10:46PM -12.7641 -41.8607 62° Northeast  Level Estimated
10:47PM -12.7156 -41.7673 62° Northeast  Level Estimated
10:48PM -12.6670 -41.6740 62° Northeast  Level Estimated
10:49PM -12.6184 -41.5807 62° Northeast  Level Estimated
10:50PM -12.5697 -41.4874 62° Northeast  Level Estimated
10:51PM -12.5211 -41.3942 62° Northeast  Level Estimated
10:52PM -12.4724 -41.3010 62° Northeast  Level Estimated
10:53PM -12.4236 -41.2078 62° Northeast  Level Estimated
10:54PM -12.3749 -41.1147 62° Northeast  Level Estimated
10:55PM -12.3260 -41.0216 62° Northeast  Level Estimated
10:56PM -12.2772 -40.9286 62° Northeast  Level Estimated
10:57PM -12.2284 -40.8355 62° Northeast  Level Estimated
10:58PM -12.1795 -40.7425 62° Northeast  Level Estimated
10:59PM -12.1306 -40.6496 62° Northeast  Level Estimated
11:00PM -12.0816 -40.5567 62° Northeast  Level Estimated
11:01PM -12.0326 -40.4638 62° Northeast  Level Estimated
11:02PM -11.9836 -40.3709 62° Northeast  Level Estimated
11:03PM -11.9345 -40.2781 62° Northeast  Level Estimated
11:04PM -11.8855 -40.1853 62° Northeast  Level Estimated
11:05PM -11.8363 -40.0926 62° Northeast  Level Estimated
11:06PM -11.7872 -39.9999 62° Northeast  Level Estimated
11:07PM -11.7380 -39.9072 62° Northeast  Level Estimated
11:08PM -11.6888 -39.8145 62° Northeast  Level Estimated
11:09PM -11.6396 -39.7219 62° Northeast  Level Estimated
11:10PM -11.5903 -39.6293 62° Northeast  Level Estimated
11:11PM -11.5410 -39.5367 61° Northeast  Level Estimated
11:12PM -11.4917 -39.4442 61° Northeast  Level Estimated
11:13PM -11.4424 -39.3517 61° Northeast  Level Estimated
11:14PM -11.3930 -39.2593 61° Northeast  Level Estimated
11:15PM -11.3436 -39.1668 61° Northeast  Level Estimated
11:16PM -11.2942 -39.0745 61° Northeast  Level Estimated
11:17PM -11.2447 -38.9821 61° Northeast  Level Estimated
11:18PM -11.1952 -38.8898 61° Northeast  Level Estimated
11:19PM -11.1457 -38.7975 61° Northeast  Level Estimated
11:20PM -11.0962 -38.7052 61° Northeast  Level Estimated
11:21PM -11.0466 -38.6129 61° Northeast  Level Estimated
11:22PM -10.9970 -38.5207 61° Northeast  Level Estimated
11:23PM -10.9474 -38.4286 61° Northeast  Level Estimated
11:24PM -10.8977 -38.3364 61° Northeast  Level Estimated
11:25PM -10.8480 -38.2443 61° Northeast  Level Estimated
11:26PM -10.7983 -38.1522 61° Northeast  Level Estimated
11:27PM -10.7486 -38.0602 61° Northeast  Level Estimated
11:28PM -10.6988 -37.9682 61° Northeast  Level Estimated
11:29PM -10.6490 -37.8762 61° Northeast  Level Estimated
11:30PM -10.5992 -37.7842 61° Northeast  Level Estimated
11:31PM -10.5493 -37.6923 61° Northeast  Level Estimated
11:32PM -10.4995 -37.6004 61° Northeast  Level Estimated
11:33PM -10.4496 -37.5085 61° Northeast  Level Estimated
11:34PM -10.3996 -37.4167 61° Northeast  Level Estimated
11:35PM -10.3497 -37.3249 61° Northeast  Level Estimated
11:36PM -10.2997 -37.2331 61° Northeast  Level Estimated
11:37PM -10.2497 -37.1413 61° Northeast  Level Estimated
11:38PM -10.1997 -37.0496 61° Northeast  Level Estimated
11:39PM -10.1496 -36.9579 61° Northeast  Level Estimated
11:40PM -10.0996 -36.8662 61° Northeast  Level Estimated
11:41PM -10.0494 -36.7746 61° Northeast  Level Estimated
11:42PM -9.9993 -36.6830 61° Northeast  Level Estimated
11:43PM -9.9492 -36.5914 61° Northeast  Level Estimated
11:44PM -9.8990 -36.4998 61° Northeast  Level Estimated
11:45PM -9.8488 -36.4083 61° Northeast  Level Estimated
11:46PM -9.7985 -36.3168 61° Northeast  Level Estimated
11:47PM -9.7483 -36.2253 61° Northeast  Level Estimated
11:48PM -9.6980 -36.1339 61° Northeast  Level Estimated